createdAt,value
2023-04-10T00:00:57.431Z,11.93
2023-04-10T00:03:24.896Z,10.85
2023-04-10T00:05:54.473Z,11.25
2023-04-10T00:08:23.194Z,11.15
2023-04-10T00:10:50.446Z,11.43
2023-04-10T00:13:17.507Z,11.77
2023-04-10T00:15:44.154Z,12.85
2023-04-10T00:18:12.217Z,11.77
2023-04-10T00:20:38.848Z,10.32
2023-04-10T00:23:06.465Z,10.73
2023-04-10T00:25:33.136Z,11.23
2023-04-10T00:27:59.814Z,10.30
2023-04-10T00:30:26.647Z,10.82
2023-04-10T00:32:53.619Z,12.45
2023-04-10T00:35:20.604Z,11.70
2023-04-10T00:37:47.244Z,11.13
2023-04-10T00:40:13.958Z,10.68
2023-04-10T00:42:40.832Z,10.75
2023-04-10T00:45:08.981Z,9.75
2023-04-10T00:47:37.257Z,9.82
2023-04-10T00:50:05.355Z,9.87
2023-04-10T00:52:32.771Z,9.68
2023-04-10T00:54:59.519Z,9.48
2023-04-10T00:57:27.118Z,9.95
2023-04-10T00:59:54.040Z,9.35
2023-04-10T01:02:20.912Z,9.37
2023-04-10T01:04:48.412Z,9.27
2023-04-10T01:07:53.965Z,8.88
2023-04-10T01:10:26.610Z,8.48
2023-04-10T01:13:05.732Z,8.63
2023-04-10T01:15:42.443Z,9.20
2023-04-10T01:18:38.054Z,9.02
2023-04-10T01:21:09.161Z,8.55
2023-04-10T01:24:07.202Z,8.02
2023-04-10T01:27:03.780Z,8.68
2023-04-10T01:29:34.098Z,7.93
2023-04-10T01:32:04.905Z,8.10
2023-04-10T01:34:39.124Z,7.60
2023-04-10T01:37:12.056Z,7.75
2023-04-10T01:39:41.558Z,7.80
2023-04-10T01:42:11.098Z,7.17
2023-04-10T01:44:42.906Z,7.70
2023-04-10T01:47:09.728Z,6.82
2023-04-10T01:49:42.418Z,7.25
2023-04-10T01:52:11.100Z,7.05
2023-04-10T01:54:38.958Z,7.33
2023-04-10T01:57:06.377Z,7.00
2023-04-10T01:59:40.969Z,7.35
2023-04-10T02:02:08.511Z,6.78
2023-04-10T02:04:35.463Z,6.90
2023-04-10T02:07:19.921Z,7.10
2023-04-10T02:10:10.837Z,7.00
2023-04-10T02:12:44.669Z,6.38
2023-04-10T02:15:12.716Z,6.18
2023-04-10T02:17:40.480Z,5.78
2023-04-10T02:20:09.102Z,6.47
2023-04-10T02:22:36.938Z,7.10
2023-04-10T02:25:05.271Z,6.72
2023-04-10T02:27:33.433Z,6.53
2023-04-10T02:30:00.988Z,7.25
2023-04-10T02:32:27.857Z,5.90
2023-04-10T02:34:55.208Z,7.05
2023-04-10T02:37:22.115Z,6.00
2023-04-10T02:39:49.823Z,6.28
2023-04-10T02:42:16.739Z,6.50
2023-04-10T02:44:43.658Z,6.77
2023-04-10T02:47:10.989Z,7.03
2023-04-10T02:49:41.916Z,6.57
2023-04-10T02:52:13.135Z,6.13
2023-04-10T02:54:40.522Z,6.43
2023-04-10T02:57:07.220Z,6.53
2023-04-10T02:59:34.049Z,6.43
2023-04-10T03:02:03.008Z,6.25
2023-04-10T03:04:33.311Z,6.88
2023-04-10T03:07:00.193Z,7.25
2023-04-10T03:09:26.840Z,6.10
2023-04-10T03:11:54.225Z,6.70
2023-04-10T03:14:21.120Z,6.03
2023-04-10T03:16:47.953Z,6.82
2023-04-10T03:19:14.668Z,6.75
2023-04-10T03:21:41.430Z,7.10
2023-04-10T03:24:08.084Z,6.85
2023-04-10T03:26:34.834Z,7.10
2023-04-10T03:29:01.656Z,7.10
2023-04-10T03:31:28.780Z,6.85
2023-04-10T03:33:58.421Z,7.53
2023-04-10T03:36:25.613Z,6.32
2023-04-10T03:38:53.779Z,7.25
2023-04-10T03:41:22.616Z,6.85
2023-04-10T03:43:51.311Z,6.07
2023-04-10T03:46:18.149Z,7.07
2023-04-10T03:48:45.211Z,6.03
2023-04-10T03:51:12.376Z,5.90
2023-04-10T03:53:39.133Z,5.38
2023-04-10T03:56:10.525Z,6.55
2023-04-10T03:58:37.288Z,6.40
2023-04-10T04:01:05.265Z,6.22
2023-04-10T04:03:38.799Z,6.50
2023-04-10T04:06:23.822Z,7.13
2023-04-10T04:09:13.720Z,6.75
2023-04-10T04:11:56.493Z,7.03
2023-04-10T04:14:43.139Z,6.57
2023-04-10T04:17:23.467Z,6.88
2023-04-10T04:20:08.936Z,6.75
2023-04-10T04:22:47.727Z,6.53
2023-04-10T04:25:33.056Z,6.93
2023-04-10T04:28:09.679Z,7.85
2023-04-10T04:30:39.298Z,6.85
2023-04-10T04:33:22.047Z,6.78
2023-04-10T04:36:01.588Z,7.00
2023-04-10T04:38:40.199Z,6.60
2023-04-10T04:41:12.315Z,7.00
2023-04-10T04:44:19.504Z,7.28
2023-04-10T04:47:09.432Z,6.78
2023-04-10T04:49:55.356Z,6.93
2023-04-10T04:52:22.084Z,7.07
2023-04-10T04:55:17.905Z,7.32
2023-04-10T04:57:57.322Z,7.45
2023-04-10T05:00:52.141Z,7.03
2023-04-10T05:03:29.079Z,8.65
2023-04-10T05:06:14.361Z,7.80
2023-04-10T05:08:59.961Z,6.72
2023-04-10T05:11:42.172Z,6.60
2023-04-10T05:14:28.449Z,7.55
2023-04-10T05:17:09.257Z,7.53
2023-04-10T05:19:41.830Z,7.80
2023-04-10T05:22:28.669Z,7.57
2023-04-10T05:25:14.231Z,7.18
2023-04-10T05:27:58.895Z,7.22
2023-04-10T05:31:01.073Z,7.50
2023-04-10T05:33:46.236Z,8.37
2023-04-10T05:36:51.243Z,7.47
2023-04-10T05:39:22.475Z,7.80
2023-04-10T05:41:58.660Z,6.53
2023-04-10T05:44:45.547Z,6.93
2023-04-10T05:47:37.827Z,7.30
2023-04-10T05:50:23.265Z,7.43
2023-04-10T05:53:13.244Z,7.20
2023-04-10T05:56:18.452Z,7.55
2023-04-10T05:58:59.076Z,7.38
2023-04-10T06:01:45.691Z,6.70
2023-04-10T06:04:12.769Z,7.22
2023-04-10T06:06:40.891Z,7.22
2023-04-10T06:09:07.682Z,7.20
2023-04-10T06:11:34.428Z,7.25
2023-04-10T06:14:01.567Z,6.57
2023-04-10T06:16:35.400Z,6.32
2023-04-10T06:19:02.153Z,8.05
2023-04-10T06:21:29.934Z,6.63
2023-04-10T06:23:56.688Z,7.22
2023-04-10T06:26:25.945Z,6.73
2023-04-10T06:28:52.963Z,7.00
2023-04-10T06:31:23.882Z,6.80
2023-04-10T06:33:51.031Z,7.45
2023-04-10T06:36:17.950Z,6.90
2023-04-10T06:38:48.964Z,7.23
2023-04-10T06:41:15.801Z,7.15
2023-04-10T06:43:42.576Z,7.10
2023-04-10T06:46:09.333Z,6.85
2023-04-10T06:48:36.041Z,7.10
2023-04-10T06:51:02.862Z,7.30
2023-04-10T06:53:30.069Z,6.55
2023-04-10T06:55:57.410Z,7.85
2023-04-10T06:58:24.557Z,7.00
2023-04-10T07:00:51.519Z,7.40
2023-04-10T07:03:18.347Z,7.80
2023-04-10T07:05:45.393Z,6.35
2023-04-10T07:08:12.128Z,6.68
2023-04-10T07:10:38.822Z,7.38
2023-04-10T07:13:05.459Z,6.55
2023-04-10T07:15:32.097Z,7.33
2023-04-10T07:17:58.791Z,7.07
2023-04-10T07:20:25.726Z,6.65
2023-04-10T07:22:52.429Z,6.97
2023-04-10T07:25:19.197Z,6.63
2023-04-10T07:27:45.925Z,7.67
2023-04-10T07:30:13.700Z,7.00
2023-04-10T07:32:42.205Z,6.63
2023-04-10T07:35:09.691Z,6.70
2023-04-10T07:37:36.486Z,6.75
2023-04-10T07:40:03.580Z,6.70
2023-04-10T07:42:30.396Z,6.05
2023-04-10T07:44:57.356Z,6.10
2023-04-10T07:47:24.361Z,6.10
2023-04-10T07:49:51.319Z,6.03
2023-04-10T07:52:18.094Z,6.67
2023-04-10T07:54:44.821Z,6.38
2023-04-10T07:57:11.480Z,6.80
2023-04-10T07:59:38.187Z,6.18
2023-04-10T08:02:04.974Z,6.40
2023-04-10T08:04:31.813Z,6.33
2023-04-10T08:06:58.668Z,6.28
2023-04-10T08:09:25.509Z,6.40
2023-04-10T08:11:52.211Z,6.78
2023-04-10T08:14:18.880Z,6.47
2023-04-10T08:16:45.868Z,6.73
2023-04-10T08:19:12.730Z,7.22
2023-04-10T08:21:39.429Z,6.97
2023-04-10T08:24:06.321Z,6.72
2023-04-10T08:26:33.059Z,6.93
2023-04-10T08:29:00.809Z,6.80
2023-04-10T08:31:28.823Z,6.68
2023-04-10T08:33:56.406Z,7.53
2023-04-10T08:36:23.897Z,6.45
2023-04-10T08:38:50.801Z,7.35
2023-04-10T08:41:19.120Z,6.40
2023-04-10T08:43:46.437Z,6.88
2023-04-10T08:46:16.627Z,7.70
2023-04-10T08:48:56.728Z,6.97
2023-04-10T08:51:28.833Z,7.40
2023-04-10T08:54:03.342Z,7.90
2023-04-10T08:56:32.636Z,6.70
2023-04-10T08:59:01.274Z,7.22
2023-04-10T09:01:28.090Z,7.35
2023-04-10T09:03:55.519Z,7.20
2023-04-10T09:06:22.506Z,7.60
2023-04-10T09:08:49.207Z,6.60
2023-04-10T09:11:16.057Z,7.25
2023-04-10T09:13:44.939Z,6.72
2023-04-10T09:16:14.908Z,7.03
2023-04-10T09:18:49.853Z,6.53
2023-04-10T09:21:19.149Z,6.45
2023-04-10T09:23:47.207Z,7.00
2023-04-10T09:26:24.404Z,6.90
2023-04-10T09:28:57.054Z,7.28
2023-04-10T09:31:30.969Z,7.73
2023-04-10T09:34:22.274Z,7.22
2023-04-10T09:36:57.394Z,7.28
2023-04-10T09:39:42.848Z,6.97
2023-04-10T09:42:11.385Z,6.50
2023-04-10T09:44:39.548Z,6.17
2023-04-10T09:47:21.579Z,6.30
2023-04-10T09:49:56.571Z,6.90
2023-04-10T09:52:26.295Z,6.60
2023-04-10T09:54:54.417Z,6.20
2023-04-10T09:57:22.561Z,7.10
2023-04-10T09:59:51.718Z,6.35
2023-04-10T10:02:20.202Z,6.75
2023-04-10T10:04:48.527Z,6.40
2023-04-10T10:07:21.167Z,7.28
2023-04-10T10:09:52.646Z,7.07
2023-04-10T10:12:43.614Z,6.25
2023-04-10T10:15:46.848Z,6.78
2023-04-10T10:18:27.329Z,6.85
2023-04-10T10:20:54.851Z,6.07
2023-04-10T10:23:22.427Z,7.30
2023-04-10T10:25:51.212Z,7.63
2023-04-10T10:28:18.741Z,6.20
2023-04-10T10:30:47.078Z,6.55
2023-04-10T10:33:14.566Z,6.68
2023-04-10T10:35:42.151Z,6.03
2023-04-10T10:38:09.983Z,6.90
2023-04-10T10:40:48.302Z,7.80
2023-04-10T10:43:23.488Z,6.65
2023-04-10T10:46:07.165Z,6.97
2023-04-10T10:48:34.335Z,7.20
2023-04-10T10:51:02.685Z,6.85
2023-04-10T10:53:36.097Z,7.53
2023-04-10T10:56:23.960Z,7.15
2023-04-10T10:58:52.905Z,7.40
2023-04-10T11:01:21.746Z,6.67
2023-04-10T11:03:48.843Z,6.30
2023-04-10T11:06:19.207Z,6.32
2023-04-10T11:08:48.004Z,6.15
2023-04-10T11:11:17.806Z,6.07
2023-04-10T11:13:51.954Z,5.97
2023-04-10T11:16:20.897Z,6.00
2023-04-10T11:18:59.240Z,5.75
2023-04-10T11:21:29.536Z,5.60
2023-04-10T11:23:56.203Z,5.53
2023-04-10T11:26:43.240Z,5.77
2023-04-10T11:29:14.073Z,5.53
2023-04-10T11:31:40.848Z,5.68
2023-04-10T11:34:08.856Z,6.32
2023-04-10T11:36:39.042Z,5.63
2023-04-10T11:39:08.827Z,5.57
2023-04-10T11:41:37.311Z,6.30
2023-04-10T11:44:06.112Z,5.43
2023-04-10T11:46:37.074Z,5.80
2023-04-10T11:49:05.535Z,6.18
2023-04-10T11:51:33.239Z,5.80
2023-04-10T11:54:13.351Z,6.07
2023-04-10T11:57:03.208Z,6.07
2023-04-10T11:59:31.506Z,5.88
2023-04-10T12:02:09.805Z,5.60
2023-04-10T12:04:37.476Z,5.93
2023-04-10T12:07:04.499Z,5.70
2023-04-10T12:09:31.671Z,5.60
2023-04-10T12:12:03.401Z,5.00
2023-04-10T12:14:39.442Z,4.90
2023-04-10T12:17:11.093Z,5.90
2023-04-10T12:19:41.546Z,5.25
2023-04-10T12:22:11.953Z,5.55
2023-04-10T12:24:48.675Z,5.10
2023-04-10T12:27:26.590Z,4.90
2023-04-10T12:29:55.392Z,5.37
2023-04-10T12:32:22.474Z,5.07
2023-04-10T12:35:01.377Z,5.00
2023-04-10T12:37:50.316Z,4.03
2023-04-10T12:40:18.232Z,4.32
2023-04-10T12:42:44.958Z,4.27
2023-04-10T12:45:14.422Z,4.03
2023-04-10T12:47:46.924Z,4.30
2023-04-10T12:50:18.788Z,3.97
2023-04-10T12:53:01.069Z,3.78
2023-04-10T12:55:28.884Z,4.17
2023-04-10T12:57:56.930Z,3.95
2023-04-10T13:00:25.334Z,4.55
2023-04-10T13:02:52.278Z,3.42
2023-04-10T13:05:20.054Z,3.22
2023-04-10T13:07:46.964Z,3.63
2023-04-10T13:10:13.663Z,3.85
2023-04-10T13:12:42.072Z,3.47
2023-04-10T13:15:10.756Z,3.97
2023-04-10T13:17:37.589Z,3.50
2023-04-10T13:20:04.718Z,3.10
2023-04-10T13:22:31.376Z,3.35
2023-04-10T13:24:58.108Z,4.13
2023-04-10T13:27:24.776Z,3.75
2023-04-10T13:29:51.407Z,4.07
2023-04-10T13:32:18.116Z,3.53
2023-04-10T13:34:44.861Z,3.88
2023-04-10T13:37:13.128Z,3.60
2023-04-10T13:39:40.219Z,3.70
2023-04-10T13:42:06.920Z,3.53
2023-04-10T13:44:33.657Z,3.53
2023-04-10T13:47:00.511Z,3.80
2023-04-10T13:49:30.261Z,3.97
2023-04-10T13:51:57.528Z,3.47
2023-04-10T13:54:24.297Z,3.83
2023-04-10T13:56:51.155Z,4.20
2023-04-10T13:59:17.869Z,4.00
2023-04-10T14:01:44.627Z,3.80
2023-04-10T14:04:11.292Z,4.35
2023-04-10T14:06:37.969Z,3.97
2023-04-10T14:09:04.879Z,3.60
2023-04-10T14:11:31.521Z,3.25
2023-04-10T14:13:58.355Z,4.13
2023-04-10T14:16:25.090Z,3.42
2023-04-10T14:18:51.760Z,3.65
2023-04-10T14:21:20.493Z,3.60
2023-04-10T14:23:47.923Z,3.17
2023-04-10T14:26:14.651Z,3.30
2023-04-10T14:28:42.335Z,3.72
2023-04-10T14:31:09.241Z,3.60
2023-04-10T14:33:36.018Z,3.80
2023-04-10T14:36:02.878Z,3.70
2023-04-10T14:38:29.629Z,3.58
2023-04-10T14:40:56.347Z,3.78
2023-04-10T14:43:23.132Z,3.72
2023-04-10T14:45:49.974Z,4.30
2023-04-10T14:48:16.828Z,3.65
2023-04-10T14:50:43.625Z,4.13
2023-04-10T14:53:10.400Z,3.65
2023-04-10T14:55:37.328Z,3.70
2023-04-10T14:58:04.746Z,3.87
2023-04-10T15:00:32.671Z,3.95
2023-04-10T15:02:59.491Z,3.63
2023-04-10T15:05:27.547Z,3.60
2023-04-10T15:07:54.937Z,3.65
2023-04-10T15:10:21.884Z,3.97
2023-04-10T15:12:48.632Z,3.58
2023-04-10T15:15:15.501Z,4.28
2023-04-10T15:17:42.458Z,4.75
2023-04-10T15:20:09.889Z,3.78
2023-04-10T15:22:36.618Z,4.40
2023-04-10T15:25:03.498Z,4.10
2023-04-10T15:27:30.501Z,3.75
2023-04-10T15:29:57.347Z,3.80
2023-04-10T15:32:24.144Z,4.00
2023-04-10T15:34:50.865Z,4.27
2023-04-10T15:37:17.593Z,4.35
2023-04-10T15:39:44.329Z,3.83
2023-04-10T15:42:11.035Z,4.05
2023-04-10T15:44:37.758Z,3.80
2023-04-10T15:47:04.554Z,4.53
2023-04-10T15:49:38.038Z,4.60
2023-04-10T15:52:08.289Z,4.57
2023-04-10T15:54:35.233Z,4.90
2023-04-10T15:57:02.606Z,4.40
2023-04-10T15:59:29.773Z,4.00
2023-04-10T16:01:56.581Z,3.67
2023-04-10T16:04:24.044Z,4.28
2023-04-10T16:06:50.944Z,4.40
2023-04-10T16:11:47.800Z,4.40
2023-04-10T16:14:14.482Z,4.88
2023-04-10T16:16:41.218Z,4.25
2023-04-10T16:19:07.899Z,4.60
2023-04-10T16:21:34.593Z,4.10
2023-04-10T16:24:01.411Z,5.07
2023-04-10T16:26:28.191Z,4.90
2023-04-10T16:28:54.886Z,4.28
2023-04-10T16:31:21.779Z,5.05
2023-04-10T16:33:48.465Z,4.95
2023-04-10T16:36:15.437Z,4.73
2023-04-10T16:38:42.227Z,5.32
2023-04-10T16:41:09.972Z,4.97
2023-04-10T16:43:36.703Z,5.15
2023-04-10T16:46:03.596Z,5.15
2023-04-10T16:48:30.328Z,5.30
2023-04-10T16:51:04.599Z,4.95
2023-04-10T16:53:32.355Z,5.15
2023-04-10T16:56:01.539Z,5.40
2023-04-10T16:58:30.317Z,5.65
2023-04-10T17:00:57.052Z,5.40
2023-04-10T17:03:23.917Z,5.97
2023-04-10T17:05:51.208Z,5.57
2023-04-10T17:08:17.848Z,6.15
2023-04-10T17:10:44.528Z,6.03
2023-04-10T17:13:11.200Z,4.97
2023-04-10T17:15:38.446Z,5.28
2023-04-10T17:18:05.188Z,3.78
2023-04-10T17:20:36.766Z,4.07
2023-04-10T17:23:03.589Z,4.30
2023-04-10T17:25:30.666Z,4.83
2023-04-10T17:27:57.812Z,5.70
2023-04-10T17:30:24.530Z,4.95
2023-04-10T17:32:51.274Z,5.85
2023-04-10T17:35:17.985Z,4.50
2023-04-10T17:37:44.676Z,4.60
2023-04-10T17:40:11.833Z,5.05
2023-04-10T17:42:38.670Z,6.40
2023-04-10T17:45:05.964Z,5.85
2023-04-10T17:47:32.712Z,4.72
2023-04-10T17:49:59.436Z,4.17
2023-04-10T17:52:26.371Z,4.20
2023-04-10T17:54:53.079Z,3.67
2023-04-10T17:57:19.792Z,3.67
2023-04-10T17:59:46.477Z,3.22
2023-04-10T18:02:13.285Z,3.47
2023-04-10T18:04:40.098Z,3.38
2023-04-10T18:07:06.749Z,3.60
2023-04-10T18:09:33.473Z,4.20
2023-04-10T18:12:01.328Z,3.60
2023-04-10T18:14:28.064Z,4.00
2023-04-10T18:16:54.959Z,3.60
2023-04-10T18:19:21.740Z,3.92
2023-04-10T18:21:48.463Z,4.10
2023-04-10T18:24:15.660Z,4.10
2023-04-10T18:26:42.374Z,5.27
2023-04-10T18:29:09.091Z,4.57
2023-04-10T18:31:36.421Z,4.85
2023-04-10T18:34:07.891Z,4.63
2023-04-10T18:36:35.379Z,4.07
2023-04-10T18:39:02.105Z,4.80
2023-04-10T18:41:28.867Z,4.03
2023-04-10T18:44:04.405Z,4.22
2023-04-10T18:46:33.056Z,4.68
2023-04-10T18:49:01.273Z,3.47
2023-04-10T18:51:28.324Z,4.10
2023-04-10T18:53:55.581Z,3.50
2023-04-10T18:56:22.655Z,3.22
2023-04-10T18:58:50.301Z,3.60
2023-04-10T19:01:20.227Z,3.28
2023-04-10T19:03:52.562Z,3.20
2023-04-10T19:06:23.757Z,3.40
2023-04-10T19:08:51.302Z,4.20
2023-04-10T19:11:19.007Z,3.30
2023-04-10T19:13:45.727Z,2.70
2023-04-10T19:16:14.585Z,2.73
2023-04-10T19:18:41.596Z,3.25
2023-04-10T19:21:08.352Z,3.72
2023-04-10T19:23:35.259Z,3.42
2023-04-10T19:26:02.038Z,3.50
2023-04-10T19:28:29.274Z,3.50
2023-04-10T19:30:56.078Z,3.40
2023-04-10T19:33:22.905Z,3.47
2023-04-10T19:35:49.659Z,3.65
2023-04-10T19:38:16.432Z,3.47
2023-04-10T19:40:44.441Z,3.17
2023-04-10T19:43:11.516Z,3.63
2023-04-10T19:45:38.825Z,3.72
2023-04-10T19:48:07.957Z,3.38
2023-04-10T19:50:34.969Z,3.63
2023-04-10T19:53:01.710Z,3.40
2023-04-10T19:55:28.406Z,3.42
2023-04-10T19:57:55.216Z,3.28
2023-04-10T20:00:22.040Z,3.63
2023-04-10T20:02:48.858Z,3.75
2023-04-10T20:05:15.673Z,4.00
2023-04-10T20:07:42.543Z,4.40
2023-04-10T20:10:09.577Z,3.67
2023-04-10T20:12:36.319Z,4.03
2023-04-10T20:15:03.881Z,4.03
2023-04-10T20:17:31.192Z,3.80
2023-04-10T20:19:57.916Z,3.38
2023-04-10T20:22:25.237Z,3.55
2023-04-10T20:24:51.960Z,3.95
2023-04-10T20:27:18.768Z,3.28
2023-04-10T20:29:45.550Z,3.53
2023-04-10T20:32:12.239Z,3.60
2023-04-10T20:34:38.984Z,3.30
2023-04-10T20:37:05.813Z,3.35
2023-04-10T20:39:37.660Z,3.45
2023-04-10T20:42:06.266Z,3.90
2023-04-10T20:44:36.859Z,3.53
2023-04-10T20:47:07.838Z,3.55
2023-04-10T20:49:37.237Z,3.58
2023-04-10T20:52:05.063Z,3.63
2023-04-10T20:54:32.163Z,3.83
2023-04-10T20:57:00.143Z,3.38
2023-04-10T20:59:27.016Z,3.85
2023-04-10T21:01:53.718Z,3.03
2023-04-10T21:04:20.402Z,3.60
2023-04-10T21:06:47.071Z,3.53
2023-04-10T21:09:13.715Z,2.83
2023-04-10T21:11:40.961Z,3.75
2023-04-10T21:14:07.644Z,3.83
2023-04-10T21:16:37.318Z,4.00
2023-04-10T21:19:04.047Z,3.10
2023-04-10T21:21:31.071Z,3.42
2023-04-10T21:23:57.785Z,3.47
2023-04-10T21:26:24.490Z,3.65
2023-04-10T21:28:51.471Z,2.97
2023-04-10T21:31:18.262Z,3.40
2023-04-10T21:33:45.737Z,3.78
2023-04-10T21:36:12.471Z,3.75
2023-04-10T21:38:39.156Z,3.70
2023-04-10T21:41:06.207Z,3.10
2023-04-10T21:43:34.723Z,3.60
2023-04-10T21:46:02.965Z,3.58
2023-04-10T21:48:30.066Z,3.70
2023-04-10T21:50:56.760Z,4.25
2023-04-10T21:53:23.459Z,4.03
2023-04-10T21:55:50.220Z,4.33
2023-04-10T21:58:16.959Z,4.75
2023-04-10T22:00:46.942Z,3.92
2023-04-10T22:03:16.166Z,4.00
2023-04-10T22:05:43.494Z,3.80
2023-04-10T22:08:10.325Z,3.63
2023-04-10T22:10:37.978Z,4.03
2023-04-10T22:13:04.672Z,3.88
2023-04-10T22:15:31.384Z,4.20
2023-04-10T22:17:58.174Z,3.42
2023-04-10T22:20:24.804Z,3.50
2023-04-10T22:22:51.537Z,3.83
2023-04-10T22:25:19.301Z,3.92
2023-04-10T22:27:46.100Z,3.78
2023-04-10T22:30:13.068Z,2.38
2023-04-10T22:32:39.851Z,2.83
2023-04-10T22:35:07.573Z,2.72
2023-04-10T22:37:34.324Z,1.80
2023-04-10T22:40:01.030Z,2.28
2023-04-10T22:42:29.830Z,1.80
2023-04-10T22:44:58.066Z,2.00
2023-04-10T22:47:24.790Z,1.80
2023-04-10T22:49:51.709Z,2.03
2023-04-10T22:52:18.359Z,1.73
2023-04-10T22:54:45.059Z,2.28
2023-04-10T22:57:11.799Z,1.90
2023-04-10T22:59:38.660Z,2.30
2023-04-10T23:02:05.549Z,1.75
2023-04-10T23:04:32.437Z,1.63
2023-04-10T23:06:59.409Z,1.70
2023-04-10T23:09:26.082Z,1.90
2023-04-10T23:11:52.774Z,1.55
2023-04-10T23:14:19.896Z,2.08
2023-04-10T23:16:46.967Z,2.35
2023-04-10T23:19:13.700Z,3.00
2023-04-10T23:21:40.612Z,1.60
2023-04-10T23:24:07.353Z,1.52
2023-04-10T23:26:34.066Z,1.48
2023-04-10T23:29:01.075Z,1.42
2023-04-10T23:31:27.864Z,1.60
2023-04-10T23:33:54.620Z,1.57
2023-04-10T23:36:21.321Z,1.85
2023-04-10T23:38:48.070Z,1.50
2023-04-10T23:41:14.729Z,2.05
2023-04-10T23:43:41.416Z,1.70
2023-04-10T23:46:08.095Z,2.63
2023-04-10T23:48:36.981Z,2.45
2023-04-10T23:51:08.884Z,2.10
2023-04-10T23:53:35.737Z,2.47
2023-04-10T23:56:02.544Z,2.67
2023-04-10T23:58:29.253Z,2.47
